Time;durP1;ratioP1;P1;durP2;ratioP2;P2;SDS_P1;SDS_P2;PMS_P1;PMS_P2;Temp;Humidity;BMP_temperature;BMP_pressure;BME280_temperature;BME280_humidity;BME280_pressure;Samples;Min_cycle;Max_cycle;Signal;HPM_P1;HPM_P2
2022/03/27 00:02:24;;;;;;;28.73;16.10;;;-0.10;99.90;-1.20;101776;;;;575413;245;24096;-77
2022/03/27 00:04:55;;;;;;;29.83;16.17;;;-0.10;99.90;-1.30;101790;;;;575327;245;24121;-80
2022/03/27 00:07:20;;;;;;;30.17;16.73;;;-0.10;99.90;-1.30;101791;;;;584445;245;24107;-78
2022/03/27 00:09:48;;;;;;;25.00;15.27;;;-0.20;99.90;-1.30;101788;;;;575253;245;24094;-78
2022/03/27 00:12:16;;;;;;;31.77;15.73;;;-0.20;99.90;-1.30;101795;;;;575223;245;25121;-81
2022/03/27 00:14:44;;;;;;;28.33;15.97;;;-0.20;99.90;-1.40;101796;;;;575155;245;24084;-79
2022/03/27 00:17:11;;;;;;;25.17;14.67;;;-0.20;99.90;-1.40;101799;;;;575572;245;24101;-80
2022/03/27 00:19:39;;;;;;;27.10;14.87;;;-0.30;99.90;-1.40;101794;;;;575619;245;24129;-79
2022/03/27 00:22:07;;;;;;;29.15;15.90;;;-0.30;99.90;-1.40;101811;;;;570671;245;35272;-79
2022/03/27 00:24:39;;;;;;;26.03;13.27;;;-0.30;99.90;-1.40;101800;;;;575565;245;24091;-79
2022/03/27 00:27:03;;;;;;;24.03;13.40;;;-0.30;99.90;-1.40;101798;;;;580304;245;24300;-81
2022/03/27 00:29:31;;;;;;;18.87;11.53;;;-0.30;99.90;-1.40;101789;;;;575531;245;24102;-79
2022/03/27 00:31:59;;;;;;;25.93;12.53;;;-0.30;99.90;-1.40;101791;;;;575625;245;25138;-81
2022/03/27 00:34:27;;;;;;;24.60;11.50;;;-0.30;99.90;-1.40;101809;;;;575790;245;24101;-81
2022/03/27 00:36:59;;;;;;;23.70;12.13;;;-0.30;99.90;-1.40;101805;;;;575765;245;24085;-81
2022/03/27 00:39:27;;;;;;;21.00;12.60;;;-0.30;99.90;-1.40;101796;;;;580443;245;24101;-80
2022/03/27 00:41:54;;;;;;;18.20;11.23;;;-0.30;99.90;-1.40;101798;;;;574954;245;24164;-78
2022/03/27 00:44:21;;;;;;;19.10;12.57;;;-0.30;99.90;-1.50;101792;;;;576071;244;24091;-78
2022/03/27 00:46:49;;;;;;;25.57;12.97;;;-0.30;99.90;-1.50;101796;;;;576621;245;24131;-78
2022/03/27 00:49:17;;;;;;;25.10;14.83;;;-0.30;99.90;-1.50;101780;;;;576296;245;24160;-78
2022/03/27 00:51:48;;;;;;;25.50;13.90;;;-0.40;99.90;-1.50;101781;;;;575843;245;24079;-79
2022/03/27 00:54:13;;;;;;;26.97;14.07;;;-0.40;99.90;-1.50;101789;;;;580291;242;24098;-78
2022/03/27 00:56:40;;;;;;;27.07;15.03;;;-0.40;99.90;-1.50;101788;;;;575543;245;24160;-79
2022/03/27 00:59:08;;;;;;;27.67;15.03;;;-0.40;99.90;-1.50;101789;;;;575401;245;24058;-78
2022/03/27 01:01:42;;;;;;;31.30;15.07;;;-0.40;99.90;-1.50;101795;;;;575850;245;24217;-79
2022/03/27 01:04:11;;;;;;;30.60;13.87;;;-0.40;99.90;-1.50;101801;;;;584241;241;24110;-79
2022/03/27 01:06:35;;;;;;;23.43;13.67;;;-0.40;99.90;-1.50;101801;;;;575196;245;24102;-79
2022/03/27 01:11:49;;;;;;;20.47;12.67;;;-0.40;99.90;-1.50;101800;;;;584465;245;24136;-79
2022/03/27 01:14:33;;;;;;;24.50;13.37;;;-0.40;99.90;-1.60;101792;;;;575350;245;24091;-78
2022/03/27 01:17:10;;;;;;;27.30;15.17;;;-0.40;99.90;-1.60;101789;;;;584451;242;24122;-76
2022/03/27 01:19:41;;;;;;;24.17;14.13;;;-0.50;99.90;-1.60;101771;;;;584372;245;24107;-78
2022/03/27 01:22:09;;;;;;;23.93;13.77;;;-0.40;99.90;-1.60;101783;;;;574877;245;24123;-78
2022/03/27 01:24:40;;;;;;;24.07;13.53;;;-0.40;99.90;-1.60;101790;;;;580249;245;24079;-79
2022/03/27 01:27:09;;;;;;;22.47;13.10;;;-0.40;99.90;-1.60;101789;;;;575321;245;24097;-82
2022/03/27 01:29:36;;;;;;;24.83;14.50;;;-0.40;99.90;-1.60;101790;;;;584115;241;24076;-80
2022/03/27 01:32:05;;;;;;;31.10;14.37;;;-0.50;99.90;-1.60;101794;;;;575050;245;24193;-79
2022/03/27 01:34:29;;;;;;;26.97;14.90;;;-0.50;99.90;-1.70;101785;;;;583852;245;24122;-79
2022/03/27 01:36:57;;;;;;;29.20;15.10;;;-0.50;99.90;-1.70;101791;;;;575411;245;24069;-77
2022/03/27 01:39:25;;;;;;;29.87;16.00;;;-0.50;99.90;-1.70;101797;;;;584049;241;24151;-78
2022/03/27 01:41:53;;;;;;;25.77;15.17;;;-0.50;99.90;-1.70;101790;;;;575522;245;24069;-78
2022/03/27 01:44:21;;;;;;;31.83;13.67;;;-0.60;99.90;-1.80;101782;;;;575437;245;24081;-81
2022/03/27 01:46:48;;;;;;;27.93;14.97;;;-0.60;99.90;-1.80;101796;;;;575332;245;24138;-78
2022/03/27 01:49:17;;;;;;;25.33;14.07;;;-0.60;99.90;-1.80;101792;;;;575323;245;24105;-78
2022/03/27 01:51:47;;;;;;;29.70;13.93;;;-0.60;99.90;-1.80;101793;;;;584152;245;24069;-78
2022/03/27 01:54:15;;;;;;;30.40;16.30;;;-0.70;99.90;-1.80;101800;;;;574669;245;24099;-80
2022/03/27 01:56:40;;;;;;;23.77;14.13;;;-0.70;99.90;-1.80;101800;;;;576425;245;24103;-79
2022/03/27 01:59:11;;;;;;;25.20;13.23;;;-0.70;99.90;-1.80;101801;;;;576550;245;24070;-78
2022/03/27 02:01:36;;;;;;;25.70;13.87;;;-0.70;99.90;-1.80;101802;;;;575838;245;24137;-81
2022/03/27 02:04:04;;;;;;;24.43;14.13;;;-0.70;99.90;-1.80;101804;;;;580588;245;24093;-80
2022/03/27 02:06:32;;;;;;;21.40;13.00;;;-0.70;99.90;-1.90;101799;;;;575557;245;24114;-80
2022/03/27 02:09:00;;;;;;;29.07;14.20;;;-0.70;99.90;-1.90;101800;;;;575477;245;24106;-78
2022/03/27 02:11:31;;;;;;;22.33;12.77;;;-0.70;99.90;-1.90;101800;;;;575356;245;24073;-79
2022/03/27 02:13:56;;;;;;;25.80;14.57;;;-0.70;99.90;-2.00;101798;;;;574694;245;25255;-80
2022/03/27 02:16:26;;;;;;;24.33;13.67;;;-0.80;99.90;-2.00;101799;;;;575425;245;24093;-82
2022/03/27 02:18:52;;;;;;;27.33;13.57;;;-0.90;99.90;-2.10;101795;;;;584640;240;25123;-81
2022/03/27 02:21:23;;;;;;;25.33;13.83;;;-0.90;99.90;-2.10;101798;;;;575783;245;24133;-81
2022/03/27 02:23:47;;;;;;;25.77;12.80;;;-0.90;99.90;-2.10;101795;;;;580513;245;24100;-81
2022/03/27 02:26:16;;;;;;;21.37;13.53;;;-1.00;99.90;-2.10;101810;;;;575789;245;24107;-82
2022/03/27 02:28:45;;;;;;;24.37;13.50;;;-1.00;99.90;-2.20;101805;;;;575761;245;24107;-82
2022/03/27 02:31:13;;;;;;;20.23;12.60;;;-1.00;99.90;-2.20;101808;;;;575683;245;24077;-81
2022/03/27 02:33:42;;;;;;;25.80;13.20;;;-1.00;99.90;-2.20;101810;;;;575405;245;24123;-79
2022/03/27 02:36:14;;;;;;;23.30;12.63;;;-1.00;99.90;-2.20;101805;;;;575431;245;24109;-79
2022/03/27 02:38:39;;;;;;;24.37;12.90;;;-1.00;99.90;-2.20;101810;;;;574668;245;24216;-79
2022/03/27 02:41:08;;;;;;;22.97;12.67;;;-1.00;99.90;-2.20;101819;;;;575363;245;24092;-81
2022/03/27 02:43:39;;;;;;;24.10;11.80;;;-1.00;99.90;-2.20;101813;;;;575628;245;24069;-79
2022/03/27 02:46:07;;;;;;;21.40;12.03;;;-1.00;99.90;-2.20;101817;;;;584407;245;24188;-80
2022/03/27 02:48:38;;;;;;;21.47;12.03;;;-1.10;99.90;-2.20;101815;;;;584333;245;24102;-79
2022/03/27 02:51:06;;;;;;;22.97;11.93;;;-1.10;99.90;-2.20;101821;;;;575137;245;24282;-79
2022/03/27 02:53:34;;;;;;;32.83;13.87;;;-1.10;99.90;-2.30;101821;;;;574981;245;24120;-79
2022/03/27 02:56:05;;;;;;;35.60;15.97;;;-1.10;99.90;-2.30;101822;;;;584020;245;24085;-79
2022/03/27 02:58:30;;;;;;;42.13;18.87;;;-1.10;99.90;-2.30;101823;;;;583818;245;24111;-78
2022/03/27 03:00:58;;;;;;;38.10;17.30;;;-1.10;99.90;-2.30;101825;;;;575238;245;24111;-79
2022/03/27 03:03:29;;;;;;;35.67;17.00;;;-1.20;99.90;-2.30;101823;;;;575144;245;24091;-78
2022/03/27 03:05:54;;;;;;;31.70;15.18;;;-1.20;99.90;-2.30;101818;;;;579076;245;35359;-78
2022/03/27 03:08:22;;;;;;;30.03;15.50;;;-1.20;99.90;-2.30;101819;;;;576185;245;24119;-79
2022/03/27 03:10:49;;;;;;;24.43;11.87;;;-1.20;99.90;-2.30;101816;;;;576520;245;24134;-82
2022/03/27 03:13:17;;;;;;;23.70;11.53;;;-1.20;99.90;-2.30;101811;;;;576290;245;24111;-79
2022/03/27 03:15:45;;;;;;;20.07;11.70;;;-1.10;99.90;-2.30;101819;;;;576183;245;25128;-79
2022/03/27 03:18:13;;;;;;;22.10;12.43;;;-1.10;99.90;-2.30;101816;;;;575458;245;24168;-79
2022/03/27 03:20:41;;;;;;;20.30;11.10;;;-1.10;99.90;-2.20;101819;;;;575622;245;24134;-79
2022/03/27 03:23:09;;;;;;;20.77;11.17;;;-1.10;99.90;-2.20;101818;;;;575556;245;24120;-79
2022/03/27 03:25:37;;;;;;;17.93;11.53;;;-1.10;99.90;-2.20;101814;;;;584348;245;24098;-79
2022/03/27 03:28:05;;;;;;;22.03;9.77;;;-1.10;99.90;-2.20;101808;;;;583958;241;24098;-82
2022/03/27 03:30:33;;;;;;;15.97;9.57;;;-1.10;99.90;-2.20;101805;;;;575598;245;24074;-79
2022/03/27 03:33:01;;;;;;;20.33;11.00;;;-1.10;99.90;-2.20;101797;;;;575356;245;24100;-81
2022/03/27 03:35:29;;;;;;;14.97;9.03;;;-1.10;99.90;-2.30;101792;;;;575273;245;24112;-81
2022/03/27 03:37:59;;;;;;;19.20;10.03;;;-1.10;99.90;-2.30;101791;;;;575368;245;24087;-80
2022/03/27 03:40:25;;;;;;;15.47;9.03;;;-1.10;99.90;-2.30;101798;;;;575301;245;24137;-79
2022/03/27 03:42:52;;;;;;;14.53;8.10;;;-1.20;99.90;-2.40;101796;;;;575600;245;24093;-82
2022/03/27 03:45:20;;;;;;;18.37;7.77;;;-1.20;99.90;-2.40;101801;;;;575417;245;24116;-79
2022/03/27 03:47:48;;;;;;;13.97;7.83;;;-1.20;99.90;-2.40;101799;;;;575118;245;24099;-79
2022/03/27 03:50:16;;;;;;;15.83;8.47;;;-1.20;99.90;-2.40;101807;;;;575211;245;24100;-79
2022/03/27 03:52:48;;;;;;;28.60;13.70;;;-1.20;99.90;-2.40;101806;;;;574982;245;24161;-79
2022/03/27 03:55:12;;;;;;;32.00;13.37;;;-1.20;99.90;-2.30;101820;;;;574839;245;24077;-79
2022/03/27 03:57:40;;;;;;;26.50;12.33;;;-1.20;99.90;-2.30;101816;;;;574999;245;24103;-78
2022/03/27 04:00:08;;;;;;;25.27;11.68;;;-1.20;99.90;-2.30;101818;;;;570410;245;35229;-80
2022/03/27 04:02:37;;;;;;;23.00;11.40;;;-1.20;99.90;-2.30;101827;;;;575130;245;24102;-80
2022/03/27 04:05:05;;;;;;;19.43;9.60;;;-1.20;99.90;-2.30;101827;;;;575068;245;24130;-80
2022/03/27 04:07:33;;;;;;;18.93;9.30;;;-1.20;99.90;-2.40;101828;;;;574932;245;24091;-78
2022/03/27 04:10:03;;;;;;;23.03;10.53;;;-1.20;99.90;-2.30;101832;;;;575200;245;24106;-77
2022/03/27 04:12:28;;;;;;;20.33;10.43;;;-1.20;99.90;-2.40;101835;;;;575419;245;24146;-79
2022/03/27 04:14:57;;;;;;;18.17;10.53;;;-1.20;99.90;-2.30;101834;;;;575295;245;24110;-81
2022/03/27 04:17:29;;;;;;;19.97;10.40;;;-1.20;99.90;-2.40;101824;;;;575140;245;24077;-81
2022/03/27 04:19:54;;;;;;;19.43;10.07;;;-1.20;99.90;-2.40;101828;;;;581360;245;24103;-82
2022/03/27 04:22:22;;;;;;;17.87;10.73;;;-1.20;99.90;-2.40;101828;;;;585491;245;24084;-83
2022/03/27 04:24:50;;;;;;;18.80;11.27;;;-1.20;99.90;-2.40;101822;;;;576362;245;24126;-82
2022/03/27 04:27:21;;;;;;;18.37;10.83;;;-1.20;99.90;-2.40;101825;;;;573554;246;24115;-79
2022/03/27 04:29:47;;;;;;;17.93;10.63;;;-1.20;99.90;-2.40;101824;;;;576211;249;24131;-79
2022/03/27 04:32:15;;;;;;;18.97;11.00;;;-1.30;99.90;-2.40;101839;;;;567893;249;24084;-81
2022/03/27 04:34:43;;;;;;;19.57;10.50;;;-1.20;99.90;-2.40;101842;;;;567902;249;24107;-80
2022/03/27 04:37:11;;;;;;;19.17;10.50;;;-1.20;99.90;-2.40;101839;;;;567870;249;24122;-80
2022/03/27 04:39:40;;;;;;;19.40;10.27;;;-1.20;99.90;-2.30;101838;;;;567785;249;24105;-80
2022/03/27 04:42:09;;;;;;;16.40;9.37;;;-1.20;99.90;-2.30;101848;;;;567752;249;24100;-79
2022/03/27 04:44:39;;;;;;;17.87;10.30;;;-1.20;99.90;-2.20;101847;;;;567494;249;24090;-81
2022/03/27 04:47:05;;;;;;;22.67;9.20;;;-1.10;99.90;-2.20;101841;;;;564531;249;24127;-80
2022/03/27 04:49:35;;;;;;;16.37;9.13;;;-1.10;99.90;-2.10;101834;;;;567465;249;24174;-83
2022/03/27 04:52:00;;;;;;;19.97;11.13;;;-1.00;99.90;-2.00;101829;;;;575446;247;24103;-79
2022/03/27 04:54:28;;;;;;;18.73;10.37;;;-0.90;99.90;-2.00;101834;;;;567443;249;24170;-82
2022/03/27 04:56:56;;;;;;;19.73;10.50;;;-0.80;99.90;-1.80;101835;;;;567158;249;24073;-82
2022/03/27 04:59:24;;;;;;;16.60;10.43;;;-0.70;99.90;-1.60;101846;;;;567261;249;24119;-80
2022/03/27 05:01:52;;;;;;;17.50;11.40;;;-0.50;99.90;-1.40;101844;;;;567121;249;24122;-81
2022/03/27 05:04:24;;;;;;;24.40;12.57;;;-0.10;99.90;-1.10;101839;;;;567100;249;24093;-81
2022/03/27 05:06:49;;;;;;;18.63;11.10;;;0.20;99.90;-0.90;101847;;;;567030;249;24131;-80
2022/03/27 05:09:18;;;;;;;17.17;11.13;;;0.10;99.90;-0.70;101851;;;;575336;245;24117;-79
2022/03/27 05:11:45;;;;;;;17.70;8.43;;;0.40;99.90;-0.50;101851;;;;580341;245;24130;-80
2022/03/27 05:14:13;;;;;;;15.60;8.70;;;0.60;99.90;-0.30;101857;;;;584202;245;24128;-81
2022/03/27 05:16:43;;;;;;;18.67;8.70;;;0.70;99.90;-0.20;101863;;;;575317;245;24086;-77
2022/03/27 05:19:09;;;;;;;14.60;8.70;;;0.90;99.90;0.00;101877;;;;583888;245;24116;-81
2022/03/27 05:21:36;;;;;;;13.63;7.17;;;1.00;99.90;0.10;101879;;;;575031;245;24124;-82
2022/03/27 05:24:08;;;;;;;8.43;5.07;;;1.20;99.90;0.20;101881;;;;579708;245;24142;-83
2022/03/27 05:26:32;;;;;;;6.23;4.10;;;1.30;99.90;0.40;101874;;;;575387;245;24136;-78
2022/03/27 05:29:02;;;;;;;12.75;6.12;;;1.50;99.90;0.50;101859;;;;570524;245;35293;-78
2022/03/27 05:31:29;;;;;;;12.70;5.63;;;1.80;99.90;0.70;101871;;;;576540;245;24107;-79
2022/03/27 05:33:58;;;;;;;15.60;4.60;;;1.90;99.90;0.80;101872;;;;576615;245;24075;-79
2022/03/27 05:36:26;;;;;;;9.93;4.70;;;1.90;99.90;1.00;101874;;;;576284;245;24103;-79
2022/03/27 05:38:53;;;;;;;8.33;4.23;;;2.10;99.90;1.10;101870;;;;576115;245;24120;-78
2022/03/27 05:41:21;;;;;;;9.63;4.80;;;2.20;99.90;1.30;101883;;;;575792;245;24131;-79
2022/03/27 05:43:49;;;;;;;9.83;4.57;;;2.30;99.90;1.40;101880;;;;575796;245;24086;-82
2022/03/27 05:46:17;;;;;;;10.40;4.50;;;2.50;99.90;1.40;101895;;;;575864;245;24134;-80
2022/03/27 05:48:45;;;;;;;9.17;4.03;;;2.50;99.90;1.60;101896;;;;575702;241;25098;-78
2022/03/27 05:51:13;;;;;;;11.07;5.40;;;2.60;99.90;1.70;101890;;;;575239;245;24117;-78
2022/03/27 05:53:41;;;;;;;8.57;4.37;;;2.80;99.90;1.80;101892;;;;574959;245;24084;-80
2022/03/27 05:56:09;;;;;;;8.13;4.33;;;2.90;99.90;2.00;101902;;;;575186;245;24079;-79
2022/03/27 05:58:40;;;;;;;9.30;5.30;;;3.10;99.90;2.20;101900;;;;575383;245;24079;-81
2022/03/27 06:01:04;;;;;;;11.00;5.20;;;3.30;99.90;2.50;101892;;;;575244;245;24097;-79
2022/03/27 06:03:33;;;;;;;16.97;5.60;;;3.50;99.90;2.80;101898;;;;575019;245;24141;-77
2022/03/27 06:06:04;;;;;;;10.17;5.97;;;4.00;99.90;3.10;101890;;;;575195;245;24137;-78
2022/03/27 06:08:30;;;;;;;8.07;4.87;;;4.40;99.90;3.50;101889;;;;574668;245;24176;-78
2022/03/27 06:10:58;;;;;;;12.33;5.13;;;4.40;99.90;4.00;101906;;;;575289;245;24149;-78
2022/03/27 06:13:26;;;;;;;10.20;5.10;;;4.90;99.90;4.50;101899;;;;575275;245;24087;-78
2022/03/27 06:15:54;;;;;;;12.83;5.37;;;5.80;99.90;5.00;101909;;;;575331;245;24123;-77
2022/03/27 06:18:22;;;;;;;11.03;6.77;;;5.80;99.90;5.60;101907;;;;575249;245;24080;-78
2022/03/27 06:20:50;;;;;;;14.37;6.30;;;6.40;99.90;6.30;101907;;;;574824;245;24176;-78
2022/03/27 06:23:18;;;;;;;10.07;5.73;;;7.10;99.90;7.00;101920;;;;574992;245;24065;-78
2022/03/27 06:25:47;;;;;;;8.43;5.47;;;8.20;99.90;7.50;101921;;;;574938;245;24116;-78
2022/03/27 06:28:15;;;;;;;10.13;6.10;;;8.20;99.90;7.80;101937;;;;574988;245;24108;-79
2022/03/27 06:30:42;;;;;;;16.43;7.17;;;8.60;99.90;8.00;101938;;;;574961;245;24094;-77
2022/03/27 06:33:10;;;;;;;12.40;6.30;;;8.90;99.90;8.40;101938;;;;574817;245;24158;-79
2022/03/27 06:35:39;;;;;;;12.33;5.73;;;9.60;99.90;8.80;101947;;;;574997;245;24095;-78
2022/03/27 06:38:07;;;;;;;13.23;6.63;;;9.60;99.90;9.30;101949;;;;574873;245;24162;-77
2022/03/27 06:40:35;;;;;;;15.57;7.33;;;10.00;99.90;9.80;101940;;;;575015;245;24137;-77
2022/03/27 06:43:04;;;;;;;12.40;7.20;;;10.50;98.50;10.10;101947;;;;576070;245;24131;-77
2022/03/27 06:45:34;;;;;;;13.43;6.87;;;10.90;95.90;10.50;101947;;;;576180;245;24146;-77
2022/03/27 06:47:59;;;;;;;14.83;7.50;;;11.30;93.50;10.80;101955;;;;584700;245;24164;-77
2022/03/27 06:50:26;;;;;;;10.00;6.70;;;11.60;91.90;11.10;101953;;;;576148;245;24092;-78
2022/03/27 06:52:54;;;;;;;14.37;8.03;;;11.90;90.30;11.60;101943;;;;584954;242;24161;-78
2022/03/27 06:55:23;;;;;;;15.93;7.60;;;12.90;82.30;12.10;101941;;;;575859;245;24170;-81
2022/03/27 06:57:52;;;;;;;13.67;7.63;;;13.30;79.80;12.50;101939;;;;584670;245;24246;-78
2022/03/27 07:03:14;;;;;;;14.30;8.50;;;13.90;76.40;13.80;101940;;;;623647;228;34736;-79
2022/03/27 07:05:48;;;;;;;14.07;7.33;;;14.50;72.40;14.00;101934;;;;607330;232;24032;-79
2022/03/27 07:08:19;;;;;;;12.37;6.50;;;14.70;70.20;14.40;101947;;;;606596;232;24011;-79
2022/03/27 07:10:46;;;;;;;12.73;6.30;;;15.10;67.40;15.00;101944;;;;615813;232;24089;-79
2022/03/27 07:13:11;;;;;;;6.03;3.87;;;15.70;65.50;15.30;101936;;;;605681;232;24023;-79
2022/03/27 07:15:43;;;;;;;6.07;3.57;;;16.10;62.50;15.50;101952;;;;615845;232;24078;-81
2022/03/27 07:18:07;;;;;;;3.70;2.77;;;16.30;59.70;15.70;101951;;;;603505;232;24065;-81
2022/03/27 07:20:40;;;;;;;6.60;3.70;;;16.60;55.30;15.80;101956;;;;606526;232;24004;-81
2022/03/27 07:23:09;;;;;;;4.77;3.27;;;16.60;55.20;15.80;101963;;;;606565;232;24066;-81
2022/03/27 07:25:35;;;;;;;5.93;3.70;;;16.70;54.70;16.10;101957;;;;606333;232;23998;-80
2022/03/27 07:28:06;;;;;;;5.10;3.47;;;17.30;51.50;16.70;101948;;;;616279;232;24072;-79
2022/03/27 07:30:34;;;;;;;3.60;2.47;;;17.30;51.50;17.20;101953;;;;605956;232;23989;-80
2022/03/27 07:33:02;;;;;;;5.23;2.80;;;17.80;50.20;17.70;101952;;;;613227;232;24040;-79
2022/03/27 07:35:32;;;;;;;2.77;2.00;;;18.40;48.60;18.00;101950;;;;606494;232;24079;-81
2022/03/27 07:38:00;;;;;;;3.33;2.13;;;18.70;42.50;18.00;101955;;;;605906;232;24004;-82
2022/03/27 07:40:28;;;;;;;4.27;2.73;;;18.80;43.00;18.20;101952;;;;606159;232;23992;-79
2022/03/27 07:42:59;;;;;;;4.80;3.57;;;19.00;43.60;18.60;101963;;;;606177;232;24032;-79
2022/03/27 07:45:25;;;;;;;4.50;3.00;;;19.60;43.00;18.70;101960;;;;605899;232;24031;-79
2022/03/27 07:47:54;;;;;;;3.97;2.83;;;19.80;42.70;19.10;101962;;;;615431;232;23025;-81
2022/03/27 07:50:24;;;;;;;6.00;3.10;;;19.80;42.70;19.80;101958;;;;595961;237;24033;-80
2022/03/27 07:52:49;;;;;;;3.87;2.37;;;20.40;42.20;21.30;101953;;;;594878;237;24121;-81
2022/03/27 07:55:17;;;;;;;3.37;1.87;;;21.60;41.00;22.50;101962;;;;582641;243;24022;-81
2022/03/27 07:57:45;;;;;;;1.60;0.80;;;22.90;38.20;22.70;101964;;;;571320;248;24082;-80
2022/03/27 08:00:13;;;;;;;1.30;1.20;;;23.40;34.30;23.20;101971;;;;582204;243;24085;-80
2022/03/27 08:02:41;;;;;;;2.30;0.90;;;24.00;34.50;23.60;101967;;;;571823;247;24052;-80
2022/03/27 08:05:09;;;;;;;2.57;1.30;;;24.40;32.10;23.80;101971;;;;571909;247;24056;-81
2022/03/27 08:07:37;;;;;;;1.57;1.13;;;24.60;32.40;24.50;101968;;;;580326;243;23075;-78
2022/03/27 08:10:05;;;;;;;1.83;1.13;;;25.10;30.90;24.50;101962;;;;582831;243;24013;-79
2022/03/27 08:12:36;;;;;;;0.70;0.70;;;25.40;30.30;24.00;101963;;;;569048;245;24077;-80
2022/03/27 08:15:01;;;;;;;2.70;1.33;;;25.20;29.70;23.90;101965;;;;592840;242;23059;-81
2022/03/27 08:17:29;;;;;;;0.93;0.93;;;25.00;30.80;24.30;101963;;;;570414;246;24151;-81
2022/03/27 08:19:58;;;;;;;1.27;1.00;;;25.70;30.00;25.00;101954;;;;573357;246;23073;-79
2022/03/27 08:22:26;;;;;;;2.83;1.03;;;25.60;30.00;25.50;101956;;;;572924;246;24164;-78
2022/03/27 08:24:54;;;;;;;2.23;1.10;;;26.20;29.90;26.00;101953;;;;573224;246;24119;-79
2022/03/27 08:27:21;;;;;;;1.73;1.10;;;26.70;29.80;26.30;101942;;;;572858;246;24135;-79
2022/03/27 08:29:49;;;;;;;1.30;1.10;;;27.20;28.50;26.30;101948;;;;573320;246;23071;-81
2022/03/27 08:32:17;;;;;;;1.83;1.47;;;27.30;29.10;27.00;101953;;;;573054;246;23091;-80
2022/03/27 08:34:45;;;;;;;1.67;1.57;;;27.80;28.80;26.90;101952;;;;572881;246;23077;-79
2022/03/27 08:37:16;;;;;;;3.10;1.77;;;27.90;28.80;26.10;101951;;;;572038;247;23102;-79
2022/03/27 08:39:45;;;;;;;2.03;1.80;;;27.60;28.90;25.70;101945;;;;580361;247;24169;-79
2022/03/27 08:42:09;;;;;;;1.83;1.70;;;27.10;29.30;26.30;101949;;;;576368;248;23059;-82
2022/03/27 08:44:37;;;;;;;2.67;1.37;;;27.30;29.20;26.20;101950;;;;588347;243;24046;-79
2022/03/27 08:47:05;;;;;;;1.87;1.20;;;27.40;28.20;25.60;101932;;;;580662;247;23069;-79
2022/03/27 08:49:41;;;;;;;0.93;0.83;;;27.00;28.00;25.80;101932;;;;590024;242;23098;-80
2022/03/27 08:52:23;;;;;;;1.90;1.20;;;27.00;28.00;26.00;101926;;;;580063;246;24061;-80
2022/03/27 08:55:06;;;;;;;1.47;1.23;;;27.00;28.00;27.10;101919;;;;569457;246;24106;-79
2022/03/27 08:57:55;;;;;;;2.10;1.00;;;28.90;28.10;28.00;101915;;;;572766;246;24146;-80
2022/03/27 09:00:23;;;;;;;1.90;0.97;;;28.80;28.00;28.40;101927;;;;572437;246;24062;-80
2022/03/27 09:02:52;;;;;;;1.47;1.20;;;29.70;27.70;28.60;101915;;;;572753;246;23131;-79
2022/03/27 09:05:22;;;;;;;0.90;0.82;;;29.70;27.70;29.00;101922;;;;572262;246;24106;-79
2022/03/27 09:07:48;;;;;;;3.40;1.27;;;30.10;27.60;29.10;101916;;;;572729;246;23070;-79
2022/03/27 09:10:18;;;;;;;3.42;1.45;;;30.30;27.20;29.10;101919;;;;572206;246;23079;-80
2022/03/27 09:12:47;;;;;;;1.85;1.50;;;30.30;27.30;29.30;101906;;;;590948;242;23060;-81
2022/03/27 09:15:11;;;;;;;4.37;2.08;;;30.50;27.90;29.20;101908;;;;572147;248;23117;-79
2022/03/27 09:18:04;;;;;;;2.00;1.65;;;30.50;27.70;28.20;101907;;;;571222;248;23108;-79
2022/03/27 09:20:46;;;;;;;4.70;2.75;;;29.90;27.30;26.30;101906;;;;574040;250;23150;-81
2022/03/27 09:23:15;;;;;;;2.75;2.37;;;26.80;29.20;24.70;101896;;;;588106;240;24077;-78
2022/03/27 09:25:43;;;;;;;2.13;1.70;;;26.80;28.70;23.90;101892;;;;598349;236;23037;-79
2022/03/27 09:28:11;;;;;;;3.67;1.50;;;25.70;29.30;23.40;101883;;;;596592;236;24013;-79
2022/03/27 09:30:39;;;;;;;2.87;1.23;;;24.90;30.70;23.30;101894;;;;594608;236;23026;-81
2022/03/27 09:33:07;;;;;;;1.90;1.50;;;24.50;31.60;23.10;101890;;;;594484;236;23012;-81
2022/03/27 09:35:36;;;;;;;1.87;1.37;;;24.20;32.20;22.80;101889;;;;594366;237;23982;-81
2022/03/27 09:38:02;;;;;;;2.73;1.57;;;23.90;32.90;21.90;101873;;;;595535;237;24100;-81
2022/03/27 09:40:30;;;;;;;2.80;1.30;;;23.30;31.70;20.70;101870;;;;594477;237;23994;-78
2022/03/27 09:43:14;;;;;;;2.97;1.67;;;22.20;32.80;20.10;101861;;;;594920;237;23032;-79
2022/03/27 09:45:38;;;;;;;2.07;1.20;;;21.50;34.10;19.70;101856;;;;595279;237;23063;-81
2022/03/27 09:48:10;;;;;;;0.97;0.90;;;20.20;36.50;19.10;101849;;;;594027;237;24029;-78
2022/03/27 09:50:44;;;;;;;2.83;1.40;;;20.10;36.30;18.60;101845;;;;594264;237;23027;-80
2022/03/27 09:53:27;;;;;;;2.43;1.53;;;19.60;37.30;18.20;101847;;;;595305;237;24027;-78
2022/03/27 09:55:58;;;;;;;4.87;1.20;;;19.10;37.90;17.70;101841;;;;582684;243;25138;-80
2022/03/27 09:58:43;;;;;;;4.60;1.70;;;18.50;38.30;17.40;101842;;;;581488;243;24038;-78
2022/03/27 10:01:17;;;;;;;4.30;1.83;;;18.10;39.00;17.00;101841;;;;589046;243;24070;-81
2022/03/27 10:04:03;;;;;;;1.33;1.20;;;17.80;39.10;16.70;101830;;;;571592;248;24138;-81
2022/03/27 10:06:36;;;;;;;1.43;1.23;;;17.20;40.20;16.40;101827;;;;569537;248;24052;-82
2022/03/27 10:09:03;;;;;;;1.33;1.10;;;17.10;40.20;16.30;101821;;;;568206;247;24069;-82
2022/03/27 10:11:30;;;;;;;6.77;1.73;;;16.90;40.60;16.20;101817;;;;580574;247;24060;-82
2022/03/27 10:13:58;;;;;;;5.00;1.60;;;16.90;40.90;16.10;101825;;;;582369;243;24032;-81
2022/03/27 10:16:30;;;;;;;3.47;1.70;;;16.70;41.00;16.00;101810;;;;571499;248;24055;-82
2022/03/27 10:19:07;;;;;;;7.07;1.90;;;16.60;40.90;16.00;101808;;;;572084;248;24070;-82
2022/03/27 10:21:35;;;;;;;2.47;1.47;;;16.70;40.80;16.10;101802;;;;572892;248;24073;-81
2022/03/27 10:24:06;;;;;;;1.13;1.07;;;16.60;40.80;15.80;101809;;;;572149;248;24057;-81
2022/03/27 10:26:34;;;;;;;9.60;1.63;;;16.60;40.60;15.50;101807;;;;572748;248;24090;-82
2022/03/27 10:29:04;;;;;;;1.57;1.30;;;16.30;41.10;15.30;101805;;;;572283;248;24062;-82
2022/03/27 10:31:30;;;;;;;4.40;1.60;;;16.10;41.60;15.10;101794;;;;577212;247;24060;-83
2022/03/27 10:34:01;;;;;;;1.83;1.30;;;15.80;41.80;15.00;101788;;;;580154;243;24039;-78
2022/03/27 10:36:44;;;;;;;2.97;1.17;;;15.70;42.40;15.00;101783;;;;581585;245;24122;-79
2022/03/27 10:39:44;;;;;;;2.93;1.17;;;15.70;42.30;15.00;101788;;;;571304;247;24098;-78
2022/03/27 10:42:18;;;;;;;1.63;1.10;;;15.70;42.30;15.10;101774;;;;583297;243;24078;-77
2022/03/27 10:45:07;;;;;;;3.20;1.27;;;15.70;42.00;15.20;101772;;;;583361;243;24027;-79
2022/03/27 10:47:36;;;;;;;1.40;1.07;;;15.90;42.50;15.30;101770;;;;567957;247;24103;-79
2022/03/27 10:50:04;;;;;;;2.20;1.20;;;16.00;43.20;15.40;101763;;;;582909;243;24125;-82
2022/03/27 10:52:32;;;;;;;2.60;1.07;;;15.90;42.30;15.70;101758;;;;582985;243;24008;-80
2022/03/27 10:55:09;;;;;;;2.63;1.10;;;16.20;42.30;16.00;101761;;;;573127;247;24075;-80
2022/03/27 10:57:45;;;;;;;2.53;1.10;;;16.60;41.20;16.00;101748;;;;569650;247;24063;-81
2022/03/27 11:00:11;;;;;;;0.97;0.97;;;16.60;41.20;16.00;101749;;;;581014;246;24100;-80
2022/03/27 11:02:50;;;;;;;1.43;1.00;;;16.60;41.30;16.00;101750;;;;577019;248;24064;-81
2022/03/27 11:05:31;;;;;;;3.00;1.33;;;16.60;41.30;16.00;101745;;;;583130;243;24106;-82
2022/03/27 11:08:19;;;;;;;7.40;1.70;;;16.60;41.50;15.90;101736;;;;582720;243;24044;-82
2022/03/27 11:10:58;;;;;;;2.75;1.73;;;16.50;41.30;16.10;101735;;;;577575;243;34924;-80
2022/03/27 11:13:26;;;;;;;2.53;1.40;;;16.70;41.10;16.00;101714;;;;568439;248;24052;-80
2022/03/27 11:16:16;;;;;;;3.03;1.47;;;16.70;41.00;15.90;101712;;;;572055;248;24086;-79
2022/03/27 11:18:46;;;;;;;1.90;1.33;;;16.60;41.20;15.80;101704;;;;568777;248;24061;-78
2022/03/27 11:21:14;;;;;;;2.40;1.43;;;16.50;41.40;15.70;101695;;;;572863;246;24127;-79